createdAt,value
2022-09-23T00:04:27.865Z,7.6
2022-09-23T00:14:30.105Z,7.5
2022-09-23T00:24:31.819Z,7.6
2022-09-23T00:34:34.033Z,7.4
2022-09-23T00:54:38.539Z,7.2
2022-09-23T01:04:41.043Z,7.2
2022-09-23T01:14:43.510Z,7.3
2022-09-23T01:24:45.184Z,7.5
2022-09-23T01:34:47.095Z,7.6
2022-09-23T01:44:49.712Z,7.5
2022-09-23T01:54:51.973Z,7.5
2022-09-23T02:04:53.718Z,7.6
2022-09-23T02:14:56.364Z,7.6
2022-09-23T02:24:58.546Z,7.5
2022-09-23T02:35:00.574Z,7.5
2022-09-23T02:45:02.434Z,7.4
2022-09-23T02:55:04.824Z,7.4
2022-09-23T03:05:06.832Z,7.3
2022-09-23T03:15:08.506Z,7.3
2022-09-23T03:25:10.838Z,7.2
2022-09-23T03:35:12.704Z,7.2
2022-09-23T03:45:14.687Z,7.1
2022-09-23T03:55:16.516Z,7.2
2022-09-23T04:05:18.991Z,7.3
2022-09-23T04:15:21.593Z,7.1
2022-09-23T04:25:24.107Z,6.8
2022-09-23T04:35:26.033Z,6.7
2022-09-23T04:45:28.119Z,6.6
2022-09-23T04:55:30.617Z,6.5
2022-09-23T05:05:33.170Z,6.8
2022-09-23T05:15:34.909Z,6.8
2022-09-23T05:25:38.397Z,6.8
2022-09-23T05:35:39.436Z,6.7
2022-09-23T05:45:41.314Z,6.6
2022-09-23T05:55:43.781Z,6.8
2022-09-23T06:05:46.004Z,6.8
2022-09-23T06:15:47.985Z,7.3
2022-09-23T06:25:50.257Z,7.7
2022-09-23T06:35:56.986Z,8.2
2022-09-23T06:45:55.106Z,9.1
2022-09-23T06:55:57.383Z,10.4
2022-09-23T07:05:59.877Z,11.2
2022-09-23T07:16:02.499Z,12.2
2022-09-23T07:26:04.305Z,13
2022-09-23T07:36:06.257Z,13.3
2022-09-23T07:46:08.357Z,13.3
2022-09-23T07:56:10.851Z,13.8
2022-09-23T08:06:12.668Z,14.1
2022-09-23T08:16:14.865Z,14.3
2022-09-23T08:26:21.366Z,14.4
2022-09-23T08:36:19.200Z,14.5
2022-09-23T08:46:21.920Z,14.6
2022-09-23T08:56:23.995Z,14.7
2022-09-23T09:06:26.147Z,15
2022-09-23T09:16:55.317Z,15.2
2022-09-23T09:26:29.791Z,15.4
2022-09-23T09:36:32.366Z,16
2022-09-23T09:46:34.994Z,16
2022-09-23T09:56:37.069Z,16.2
2022-09-23T10:06:39.141Z,16.7
2022-09-23T10:16:41.491Z,16.6
2022-09-23T10:26:44.038Z,16.6
2022-09-23T10:36:45.939Z,16.7
2022-09-23T10:56:49.720Z,16.9
2022-09-23T11:06:52.076Z,17.1
2022-09-23T11:16:54.151Z,17.3
2022-09-23T11:26:56.564Z,17.8
2022-09-23T11:36:58.314Z,18.1
2022-09-23T11:47:00.849Z,18.2
2022-09-23T11:57:02.879Z,18.2
2022-09-23T12:17:07.524Z,18.7
2022-09-23T12:27:10.003Z,18.2
2022-09-23T12:37:12.257Z,18.1
2022-09-23T12:47:14.237Z,18.3
2022-09-23T12:57:16.244Z,18.5
2022-09-23T13:07:18.760Z,18.2
2022-09-23T13:17:20.646Z,18.2
2022-09-23T13:27:22.867Z,18.5
2022-09-23T13:37:24.948Z,18.1
2022-09-23T13:47:27.338Z,18.2
2022-09-23T13:57:28.982Z,18
2022-09-23T14:07:30.696Z,18.3
2022-09-23T14:17:33.017Z,18.1
2022-09-23T14:17:54.948Z,18.1
2022-09-23T14:27:42.058Z,18.1
2022-09-23T14:37:44.536Z,18.2
2022-09-23T14:47:46.380Z,18
2022-09-23T14:57:48.312Z,17.7
2022-09-23T15:07:50.153Z,17.5
2022-09-23T15:17:52.380Z,17.3
2022-09-23T15:27:54.903Z,17.2
2022-09-23T15:37:57.255Z,17.1
2022-09-23T15:47:59.242Z,17.1
2022-09-23T15:58:01.617Z,17
2022-09-23T16:08:07.946Z,17
2022-09-23T16:18:05.509Z,16.9
2022-09-23T16:28:07.879Z,16.7
2022-09-23T16:38:10.062Z,16.6
2022-09-23T16:48:12.070Z,16.5
2022-09-23T16:58:14.231Z,16.4
2022-09-23T17:08:16.692Z,16.1
2022-09-23T17:18:19.589Z,15.9
2022-09-23T17:28:20.382Z,15.5
2022-09-23T17:38:24.728Z,15.3
2022-09-23T17:48:24.460Z,15
2022-09-23T17:58:26.777Z,14.7
2022-09-23T18:08:28.815Z,14.1
2022-09-23T18:18:31.321Z,14.2
2022-09-23T18:28:34.912Z,13.6
2022-09-23T18:38:36.456Z,13.7
2022-09-23T18:48:38.963Z,13.6
2022-09-23T18:58:41.204Z,13.7
2022-09-23T19:08:43.721Z,13.6
2022-09-23T19:28:47.406Z,13.3
2022-09-23T19:38:49.129Z,13.1
2022-09-23T19:48:51.191Z,13.1
2022-09-23T19:58:53.407Z,13.1
2022-09-23T20:08:55.276Z,13.1
2022-09-23T20:18:57.529Z,13
2022-09-23T20:28:59.315Z,13
2022-09-23T20:39:01.972Z,12.8
2022-09-23T20:49:04.190Z,12.8
2022-09-23T20:59:05.959Z,13
2022-09-23T21:09:08.180Z,13
2022-09-23T21:19:10.093Z,13
2022-09-23T21:29:11.812Z,12.9
2022-09-23T21:39:13.970Z,12.9
2022-09-23T21:49:16.272Z,12.7
2022-09-23T21:59:18.719Z,12.7
2022-09-23T22:09:20.696Z,12.6
2022-09-23T22:19:22.525Z,12.6
2022-09-23T22:29:24.748Z,12.4
2022-09-23T22:39:26.572Z,12.4
2022-09-23T22:49:28.636Z,12.5
2022-09-23T22:59:31.059Z,12.5
2022-09-23T23:19:35.627Z,12.5
2022-09-23T23:49:41.095Z,12.4
2022-09-23T23:59:43.393Z,12.4
